createdAt,value
2022-10-12T00:01:13.942Z,7.45
2022-10-12T00:03:42.737Z,7.62
2022-10-12T00:06:20.652Z,7.12
2022-10-12T00:08:50.853Z,7.10
2022-10-12T00:11:22.802Z,7.50
2022-10-12T00:13:51.438Z,6.92
2022-10-12T00:16:22.205Z,6.87
2022-10-12T00:18:55.486Z,6.80
2022-10-12T00:21:24.952Z,6.53
2022-10-12T00:23:55.333Z,6.53
2022-10-12T00:26:25.112Z,6.87
2022-10-12T00:29:02.120Z,7.17
2022-10-12T00:31:31.513Z,6.37
2022-10-12T00:34:04.553Z,6.83
2022-10-12T00:36:35.801Z,6.55
2022-10-12T00:39:07.981Z,5.28
2022-10-12T00:41:39.585Z,5.95
2022-10-12T00:44:39.696Z,5.40
2022-10-12T00:47:16.505Z,5.33
2022-10-12T00:49:48.193Z,5.33
2022-10-12T00:52:20.142Z,5.30
2022-10-12T00:54:51.537Z,5.35
2022-10-12T00:57:21.846Z,5.40
2022-10-12T00:59:54.731Z,5.35
2022-10-12T01:02:26.806Z,5.05
2022-10-12T01:04:55.782Z,5.75
2022-10-12T01:07:24.310Z,5.08
2022-10-12T01:09:53.305Z,5.12
2022-10-12T01:12:23.080Z,4.55
2022-10-12T01:14:51.895Z,4.50
2022-10-12T01:17:26.476Z,5.28
2022-10-12T01:20:28.556Z,5.85
2022-10-12T01:23:12.229Z,5.50
2022-10-12T01:26:08.076Z,4.95
2022-10-12T01:28:49.058Z,4.62
2022-10-12T01:31:38.538Z,4.72
2022-10-12T01:34:15.768Z,4.80
2022-10-12T01:36:47.743Z,5.05
2022-10-12T01:39:25.304Z,4.20
2022-10-12T01:41:56.917Z,5.20
2022-10-12T01:44:27.283Z,4.90
2022-10-12T01:46:57.222Z,4.65
2022-10-12T01:49:31.352Z,4.62
2022-10-12T01:52:18.064Z,4.45
2022-10-12T01:54:58.455Z,4.53
2022-10-12T01:57:41.964Z,5.05
2022-10-12T02:00:13.395Z,5.00
2022-10-12T02:03:16.883Z,4.65
2022-10-12T02:05:49.112Z,5.33
2022-10-12T02:08:20.690Z,4.30
2022-10-12T02:11:01.241Z,4.67
2022-10-12T02:13:33.188Z,4.80
2022-10-12T02:16:05.363Z,4.17
2022-10-12T02:18:36.037Z,4.62
2022-10-12T02:21:05.217Z,4.72
2022-10-12T02:23:34.491Z,4.40
2022-10-12T02:26:03.572Z,4.20
2022-10-12T02:28:35.503Z,3.92
2022-10-12T02:31:10.174Z,4.08
2022-10-12T02:33:44.809Z,4.70
2022-10-12T02:36:28.224Z,4.70
2022-10-12T02:38:59.836Z,4.90
2022-10-12T02:41:52.286Z,4.62
2022-10-12T02:44:29.732Z,4.40
2022-10-12T02:47:00.158Z,5.10
2022-10-12T02:49:31.613Z,4.30
2022-10-12T02:52:00.612Z,4.72
2022-10-12T02:54:30.575Z,5.25
2022-10-12T02:56:59.161Z,4.62
2022-10-12T02:59:28.459Z,4.60
2022-10-12T03:01:56.984Z,4.28
2022-10-12T03:04:25.599Z,4.30
2022-10-12T03:06:54.159Z,4.47
2022-10-12T03:09:22.833Z,4.67
2022-10-12T03:11:51.358Z,4.70
2022-10-12T03:14:21.141Z,4.58
2022-10-12T03:16:50.506Z,4.05
2022-10-12T03:19:19.048Z,4.50
2022-10-12T03:21:47.592Z,3.95
2022-10-12T03:24:16.203Z,4.30
2022-10-12T03:26:44.732Z,4.15
2022-10-12T03:29:13.276Z,4.30
2022-10-12T03:31:41.870Z,4.00
2022-10-12T03:34:10.345Z,4.03
2022-10-12T03:36:38.880Z,4.03
2022-10-12T03:39:07.431Z,4.45
2022-10-12T03:41:35.955Z,3.75
2022-10-12T03:44:04.628Z,3.95
2022-10-12T03:46:33.183Z,3.83
2022-10-12T03:49:01.797Z,4.50
2022-10-12T03:51:30.327Z,3.62
2022-10-12T03:53:58.855Z,4.08
2022-10-12T03:56:27.397Z,3.95
2022-10-12T03:58:56.011Z,4.50
2022-10-12T04:01:25.585Z,4.35
2022-10-12T04:03:54.225Z,4.20
2022-10-12T04:06:22.747Z,4.40
2022-10-12T04:08:51.284Z,3.60
2022-10-12T04:11:20.478Z,4.00
2022-10-12T04:13:49.063Z,4.25
2022-10-12T04:16:17.593Z,4.50
2022-10-12T04:18:46.207Z,4.45
2022-10-12T04:21:17.268Z,4.87
2022-10-12T04:23:45.822Z,4.60
2022-10-12T04:26:14.353Z,4.70
2022-10-12T04:28:42.915Z,4.50
2022-10-12T04:31:11.687Z,4.55
2022-10-12T04:33:40.204Z,5.08
2022-10-12T04:36:08.979Z,4.50
2022-10-12T04:38:40.289Z,4.60
2022-10-12T04:41:08.850Z,4.50
2022-10-12T04:43:37.380Z,4.35
2022-10-12T04:46:06.017Z,4.58
2022-10-12T04:48:34.547Z,4.47
2022-10-12T04:51:03.098Z,4.80
2022-10-12T04:53:31.638Z,4.60
2022-10-12T04:56:06.211Z,4.35
2022-10-12T04:58:34.758Z,4.50
2022-10-12T05:01:03.341Z,4.78
2022-10-12T05:03:31.857Z,4.35
2022-10-12T05:06:00.412Z,4.45
2022-10-12T05:08:28.960Z,5.00
2022-10-12T05:10:59.407Z,3.95
2022-10-12T05:13:28.649Z,4.08
2022-10-12T05:15:57.197Z,4.50
2022-10-12T05:18:25.946Z,4.08
2022-10-12T05:20:57.049Z,4.03
2022-10-12T05:23:24.783Z,4.03
2022-10-12T05:25:57.619Z,4.30
2022-10-12T05:28:26.333Z,4.05
2022-10-12T05:30:54.836Z,4.37
2022-10-12T05:33:23.455Z,4.03
2022-10-12T05:35:56.221Z,4.08
2022-10-12T05:38:22.118Z,3.72
2022-10-12T05:40:50.682Z,4.03
2022-10-12T05:43:19.334Z,4.85
2022-10-12T05:45:47.868Z,4.10
2022-10-12T05:48:16.344Z,4.08
2022-10-12T05:50:44.889Z,4.53
2022-10-12T05:53:13.605Z,4.03
2022-10-12T05:55:43.705Z,3.58
2022-10-12T05:58:12.240Z,4.05
2022-10-12T06:00:40.772Z,4.15
2022-10-12T06:03:09.318Z,4.05
2022-10-12T06:05:37.856Z,4.30
2022-10-12T06:08:08.403Z,4.42
2022-10-12T06:10:37.936Z,4.95
2022-10-12T06:13:06.557Z,6.55
2022-10-12T06:15:38.659Z,5.65
2022-10-12T06:18:07.255Z,6.78
2022-10-12T06:20:35.761Z,6.05
2022-10-12T06:23:04.973Z,4.90
2022-10-12T06:25:33.600Z,5.78
2022-10-12T06:28:02.127Z,4.55
2022-10-12T06:30:30.686Z,4.42
2022-10-12T06:32:59.233Z,4.03
2022-10-12T06:35:27.774Z,4.20
2022-10-12T06:37:56.320Z,5.10
2022-10-12T06:40:24.860Z,4.87
2022-10-12T06:42:58.290Z,4.42
2022-10-12T06:45:23.856Z,4.15
2022-10-12T06:47:52.388Z,3.72
2022-10-12T06:50:20.942Z,3.98
2022-10-12T06:52:49.506Z,4.35
2022-10-12T06:55:18.325Z,4.40
2022-10-12T06:57:46.933Z,4.10
2022-10-12T07:00:15.838Z,3.62
2022-10-12T07:02:44.405Z,4.25
2022-10-12T07:05:12.967Z,4.40
2022-10-12T07:07:41.985Z,3.75
2022-10-12T07:10:11.090Z,5.22
2022-10-12T07:12:40.366Z,4.55
2022-10-12T07:15:09.676Z,4.60
2022-10-12T07:17:38.610Z,3.80
2022-10-12T07:20:07.846Z,3.98
2022-10-12T07:22:36.413Z,4.30
2022-10-12T07:25:05.331Z,3.65
2022-10-12T07:27:33.967Z,4.10
2022-10-12T07:30:02.656Z,3.77
2022-10-12T07:32:31.279Z,3.85
2022-10-12T07:34:59.893Z,3.40
2022-10-12T07:37:28.494Z,3.60
2022-10-12T07:39:57.700Z,3.83
2022-10-12T07:42:26.592Z,3.25
2022-10-12T07:44:55.197Z,3.85
2022-10-12T07:47:23.762Z,3.72
2022-10-12T07:49:52.293Z,4.08
2022-10-12T07:52:20.850Z,3.92
2022-10-12T07:54:49.442Z,3.47
2022-10-12T07:57:18.036Z,4.17
2022-10-12T07:59:47.359Z,3.33
2022-10-12T08:02:15.900Z,3.62
2022-10-12T08:04:44.483Z,3.47
2022-10-12T08:07:13.018Z,3.72
